Sand Key, FL current weather conditions

sailwx.info

Wind from 020 at 19 knots gusting 23

Air temperature 24.4° C

Last reported at 2014-Oct-25 13:50 UTC.
Time now 2014-Oct-25 14:36 UTC

Location: N 24°28' W 081°53'.
View on Google Maps.

See reports from other nearby stations

  
Tides and Currents Weather Stations Pressure Air Temp Water Temp Dewpoint Dewpoint Depression Visibility Wind Speed Wind Dir Waves Ship Positions
date/time (UTC)wind fromknots sea level pressurealtimeterstation pressurevisibilityair tempwater tempwave heightnotes
2014-Oct-25 13:50 020 19 gusting 23 24.4
2014-Oct-25 12:50 020 18 gusting 20 24.4
2014-Oct-25 11:50 020 19 gusting 23 24.4
2014-Oct-25 10:50 020 20 gusting 24 24.4
2014-Oct-25 09:50 020 20 gusting 23 24.6
2014-Oct-25 08:50 020 20 gusting 25 24.7
2014-Oct-25 07:50 030 22 gusting 25 24.7
2014-Oct-25 06:50 030 22 gusting 24 24.8
2014-Oct-25 05:50 030 22 gusting 24 25.0
2014-Oct-25 04:50 030 20 gusting 24 25.4
2014-Oct-25 03:50 030 20 gusting 25 25.7
2014-Oct-25 02:50 030 20 gusting 22 26.1
2014-Oct-25 01:50 030 18 gusting 20 26.3
2014-Oct-25 00:50 040 18 gusting 20 26.3
2014-Oct-24 22:50 030 20 gusting 23 26.5
2014-Oct-24 21:50 030 22 gusting 24 26.4
2014-Oct-24 20:50 030 23 gusting 26 26.4
2014-Oct-24 19:50 030 22 gusting 26 26.3
2014-Oct-24 18:50 030 20 gusting 24 26.1
2014-Oct-24 17:50 040 20 gusting 23 25.8
2014-Oct-24 16:50 030 20 gusting 22 25.0
2014-Oct-24 15:50 030 19 gusting 22 25.1
2014-Oct-24 14:50 040 18 gusting 20 25.1
2014-Oct-24 13:50 040 17 gusting 20 24.8
2014-Oct-24 12:50 040 20 gusting 25 24.8
2014-Oct-24 11:50 040 19 gusting 23 24.9
2014-Oct-24 10:50 050 20 gusting 24 24.6
2014-Oct-24 09:50 050 23 gusting 26 24.8
2014-Oct-24 08:50 040 22 gusting 25 24.4
2014-Oct-24 07:50 040 18 gusting 20 25.1
2014-Oct-24 05:50 050 20 gusting 24 25.1
2014-Oct-24 04:50 060 22 gusting 24 25.0
2014-Oct-24 03:50 060 19 gusting 23 24.9
2014-Oct-24 02:50 050 20 gusting 24 24.9
2014-Oct-24 01:50 060 20 gusting 25 25.2
2014-Oct-24 00:50 060 19 gusting 23 25.2
2014-Oct-23 22:50 080 22 gusting 25 24.0
2014-Oct-23 21:50 070 19 gusting 22 24.5
2014-Oct-23 20:50 070 15 gusting 18 24.6
2014-Oct-23 19:50 040 16 gusting 18 23.6
2014-Oct-23 18:50 080 14 gusting 16 23.2
2014-Oct-23 17:50 100 19 gusting 23 24.0
2014-Oct-23 16:50 070 18 gusting 20 24.3
2014-Oct-23 15:50 060 18 gusting 20 25.2
2014-Oct-23 14:50 060 18 gusting 23 24.5